sensor_id;sensor_type;location;lat;lon;timestamp;temperature;humidity
67942;SHT31;54731;42.600;23.476;2023-02-11T00:01:24;-3.95;67.54
67942;SHT31;54731;42.600;23.476;2023-02-11T00:03:50;-3.91;67.60
67942;SHT31;54731;42.600;23.476;2023-02-11T00:06:15;-3.91;67.65
67942;SHT31;54731;42.600;23.476;2023-02-11T00:08:41;-3.92;67.65
67942;SHT31;54731;42.600;23.476;2023-02-11T00:11:06;-3.91;67.79
67942;SHT31;54731;42.600;23.476;2023-02-11T00:13:32;-3.95;68.01
67942;SHT31;54731;42.600;23.476;2023-02-11T00:15:58;-4.00;67.84
67942;SHT31;54731;42.600;23.476;2023-02-11T00:18:23;-3.98;67.85
67942;SHT31;54731;42.600;23.476;2023-02-11T00:20:48;-3.95;67.79
67942;SHT31;54731;42.600;23.476;2023-02-11T00:23:14;-3.98;67.73
67942;SHT31;54731;42.600;23.476;2023-02-11T00:25:41;-3.98;67.85
67942;SHT31;54731;42.600;23.476;2023-02-11T00:28:08;-3.98;67.55
67942;SHT31;54731;42.600;23.476;2023-02-11T00:30:34;-4.02;67.61
67942;SHT31;54731;42.600;23.476;2023-02-11T00:32:59;-4.02;67.48
67942;SHT31;54731;42.600;23.476;2023-02-11T00:35:24;-3.98;67.19
67942;SHT31;54731;42.600;23.476;2023-02-11T00:37:52;-4.00;67.24
67942;SHT31;54731;42.600;23.476;2023-02-11T00:40:18;-4.00;66.91
67942;SHT31;54731;42.600;23.476;2023-02-11T00:42:43;-4.02;66.85
67942;SHT31;54731;42.600;23.476;2023-02-11T00:45:08;-3.99;66.58
67942;SHT31;54731;42.600;23.476;2023-02-11T00:47:34;-4.09;66.78
67942;SHT31;54731;42.600;23.476;2023-02-11T00:50:00;-4.13;66.81
67942;SHT31;54731;42.600;23.476;2023-02-11T00:52:26;-4.14;66.74
67942;SHT31;54731;42.600;23.476;2023-02-11T00:54:51;-4.12;66.66
67942;SHT31;54731;42.600;23.476;2023-02-11T00:57:16;-4.14;66.59
67942;SHT31;54731;42.600;23.476;2023-02-11T00:59:42;-4.14;66.52
67942;SHT31;54731;42.600;23.476;2023-02-11T01:02:07;-4.19;66.54
67942;SHT31;54731;42.600;23.476;2023-02-11T01:04:32;-4.14;66.46
67942;SHT31;54731;42.600;23.476;2023-02-11T01:06:58;-4.14;66.36
67942;SHT31;54731;42.600;23.476;2023-02-11T01:09:23;-4.19;66.42
67942;SHT31;54731;42.600;23.476;2023-02-11T01:11:48;-4.16;66.35
67942;SHT31;54731;42.600;23.476;2023-02-11T01:14:14;-4.20;66.47
67942;SHT31;54731;42.600;23.476;2023-02-11T01:16:39;-4.24;66.53
67942;SHT31;54731;42.600;23.476;2023-02-11T01:19:04;-4.23;66.35
67942;SHT31;54731;42.600;23.476;2023-02-11T01:21:30;-4.17;65.52
67942;SHT31;54731;42.600;23.476;2023-02-11T01:23:55;-4.19;65.47
67942;SHT31;54731;42.600;23.476;2023-02-11T01:26:20;-4.26;65.81
67942;SHT31;54731;42.600;23.476;2023-02-11T01:28:46;-4.29;65.74
67942;SHT31;54731;42.600;23.476;2023-02-11T01:31:12;-4.37;66.08
67942;SHT31;54731;42.600;23.476;2023-02-11T01:33:37;-4.39;66.10
67942;SHT31;54731;42.600;23.476;2023-02-11T01:36:04;-4.42;65.89
67942;SHT31;54731;42.600;23.476;2023-02-11T01:38:30;-4.40;65.93
67942;SHT31;54731;42.600;23.476;2023-02-11T01:40:59;-4.37;65.74
67942;SHT31;54731;42.600;23.476;2023-02-11T01:43:25;-4.50;66.09
67942;SHT31;54731;42.600;23.476;2023-02-11T01:48:42;-4.52;66.08
67942;SHT31;54731;42.600;23.476;2023-02-11T01:53:37;-4.67;66.43
67942;SHT31;54731;42.600;23.476;2023-02-11T01:56:03;-4.67;66.60
67942;SHT31;54731;42.600;23.476;2023-02-11T01:58:31;-4.71;66.53
67942;SHT31;54731;42.600;23.476;2023-02-11T02:00:59;-4.68;66.58
67942;SHT31;54731;42.600;23.476;2023-02-11T02:03:26;-4.70;66.58
67942;SHT31;54731;42.600;23.476;2023-02-11T02:11:00;-4.88;67.08
67942;SHT31;54731;42.600;23.476;2023-02-11T02:13:27;-4.84;67.52
67942;SHT31;54731;42.600;23.476;2023-02-11T02:16:00;-4.81;67.23
67942;SHT31;54731;42.600;23.476;2023-02-11T02:30:15;-4.85;67.51
67942;SHT31;54731;42.600;23.476;2023-02-11T02:38:40;-4.99;68.06
67942;SHT31;54731;42.600;23.476;2023-02-11T02:41:14;-4.92;67.88
67942;SHT31;54731;42.600;23.476;2023-02-11T02:43:46;-5.02;68.02
67942;SHT31;54731;42.600;23.476;2023-02-11T02:48:46;-5.15;68.67
67942;SHT31;54731;42.600;23.476;2023-02-11T02:56:55;-5.09;68.42
67942;SHT31;54731;42.600;23.476;2023-02-11T03:02:17;-5.13;68.46
67942;SHT31;54731;42.600;23.476;2023-02-11T03:12:42;-5.20;68.29
67942;SHT31;54731;42.600;23.476;2023-02-11T03:15:08;-5.20;68.37
67942;SHT31;54731;42.600;23.476;2023-02-11T03:17:35;-5.22;68.22
67942;SHT31;54731;42.600;23.476;2023-02-11T03:20:04;-5.16;67.84
67942;SHT31;54731;42.600;23.476;2023-02-11T03:22:41;-5.15;67.90
67942;SHT31;54731;42.600;23.476;2023-02-11T03:25:10;-5.20;67.76
67942;SHT31;54731;42.600;23.476;2023-02-11T03:27:45;-5.19;67.70
67942;SHT31;54731;42.600;23.476;2023-02-11T03:30:25;-5.19;67.34
67942;SHT31;54731;42.600;23.476;2023-02-11T03:33:01;-5.23;67.55
67942;SHT31;54731;42.600;23.476;2023-02-11T03:35:40;-5.23;67.14
67942;SHT31;54731;42.600;23.476;2023-02-11T03:39:09;-5.18;66.91
67942;SHT31;54731;42.600;23.476;2023-02-11T03:41:19;-5.23;67.23
67942;SHT31;54731;42.600;23.476;2023-02-11T03:43:48;-5.25;67.11
67942;SHT31;54731;42.600;23.476;2023-02-11T03:46:17;-5.18;66.70
67942;SHT31;54731;42.600;23.476;2023-02-11T03:48:47;-5.20;66.67
67942;SHT31;54731;42.600;23.476;2023-02-11T03:51:13;-5.16;66.42
67942;SHT31;54731;42.600;23.476;2023-02-11T03:53:42;-5.16;66.18
67942;SHT31;54731;42.600;23.476;2023-02-11T03:56:14;-5.08;66.02
67942;SHT31;54731;42.600;23.476;2023-02-11T03:58:43;-5.05;65.91
67942;SHT31;54731;42.600;23.476;2023-02-11T04:01:08;-5.01;65.93
67942;SHT31;54731;42.600;23.476;2023-02-11T04:03:34;-4.99;65.71
67942;SHT31;54731;42.600;23.476;2023-02-11T04:05:59;-4.97;65.65
67942;SHT31;54731;42.600;23.476;2023-02-11T04:08:25;-5.01;65.95
67942;SHT31;54731;42.600;23.476;2023-02-11T04:10:50;-5.09;66.29
67942;SHT31;54731;42.600;23.476;2023-02-11T04:13:15;-5.12;66.61
67942;SHT31;54731;42.600;23.476;2023-02-11T04:15:41;-5.16;66.45
67942;SHT31;54731;42.600;23.476;2023-02-11T04:18:06;-5.15;66.28
67942;SHT31;54731;42.600;23.476;2023-02-11T04:20:31;-5.16;66.21
67942;SHT31;54731;42.600;23.476;2023-02-11T04:22:56;-5.22;66.37
67942;SHT31;54731;42.600;23.476;2023-02-11T04:25:22;-5.25;66.53
67942;SHT31;54731;42.600;23.476;2023-02-11T04:27:47;-5.32;66.69
67942;SHT31;54731;42.600;23.476;2023-02-11T04:30:12;-5.36;66.74
67942;SHT31;54731;42.600;23.476;2023-02-11T04:32:38;-5.46;66.90
67942;SHT31;54731;42.600;23.476;2023-02-11T04:35:04;-5.52;67.29
67942;SHT31;54731;42.600;23.476;2023-02-11T04:37:29;-5.60;67.63
67942;SHT31;54731;42.600;23.476;2023-02-11T04:39:55;-5.53;67.75
67942;SHT31;54731;42.600;23.476;2023-02-11T04:42:20;-5.55;67.66
67942;SHT31;54731;42.600;23.476;2023-02-11T04:44:46;-5.48;67.51
67942;SHT31;54731;42.600;23.476;2023-02-11T04:47:11;-5.52;67.54
67942;SHT31;54731;42.600;23.476;2023-02-11T04:49:36;-5.63;67.97
67942;SHT31;54731;42.600;23.476;2023-02-11T04:52:02;-5.62;68.05
67942;SHT31;54731;42.600;23.476;2023-02-11T04:54:27;-5.55;67.79
67942;SHT31;54731;42.600;23.476;2023-02-11T04:56:52;-5.48;67.77
67942;SHT31;54731;42.600;23.476;2023-02-11T04:59:18;-5.50;67.71
67942;SHT31;54731;42.600;23.476;2023-02-11T05:01:43;-5.48;67.64
67942;SHT31;54731;42.600;23.476;2023-02-11T05:04:08;-5.46;67.30
67942;SHT31;54731;42.600;23.476;2023-02-11T05:06:33;-5.44;66.86
67942;SHT31;54731;42.600;23.476;2023-02-11T05:08:59;-5.43;66.95
67942;SHT31;54731;42.600;23.476;2023-02-11T05:11:24;-5.44;66.74
67942;SHT31;54731;42.600;23.476;2023-02-11T05:13:50;-5.40;66.42
67942;SHT31;54731;42.600;23.476;2023-02-11T05:16:16;-5.40;66.53
67942;SHT31;54731;42.600;23.476;2023-02-11T05:18:43;-5.43;66.95
67942;SHT31;54731;42.600;23.476;2023-02-11T05:21:13;-5.53;67.07
67942;SHT31;54731;42.600;23.476;2023-02-11T05:23:39;-5.52;66.73
67942;SHT31;54731;42.600;23.476;2023-02-11T05:26:05;-5.46;66.10
67942;SHT31;54731;42.600;23.476;2023-02-11T05:28:31;-5.39;65.81
67942;SHT31;54731;42.600;23.476;2023-02-11T05:30:57;-5.39;65.98
67942;SHT31;54731;42.600;23.476;2023-02-11T05:33:23;-5.42;66.38
67942;SHT31;54731;42.600;23.476;2023-02-11T05:35:48;-5.44;66.37
67942;SHT31;54731;42.600;23.476;2023-02-11T05:38:14;-5.58;67.03
67942;SHT31;54731;42.600;23.476;2023-02-11T05:40:39;-5.58;67.03
67942;SHT31;54731;42.600;23.476;2023-02-11T05:43:05;-5.59;66.40
67942;SHT31;54731;42.600;23.476;2023-02-11T05:45:31;-5.58;66.56
67942;SHT31;54731;42.600;23.476;2023-02-11T05:47:57;-5.60;66.74
67942;SHT31;54731;42.600;23.476;2023-02-11T05:50:23;-5.55;66.70
67942;SHT31;54731;42.600;23.476;2023-02-11T05:52:48;-5.58;66.67
67942;SHT31;54731;42.600;23.476;2023-02-11T05:55:13;-5.56;66.71
67942;SHT31;54731;42.600;23.476;2023-02-11T05:57:38;-5.60;66.75
67942;SHT31;54731;42.600;23.476;2023-02-11T06:00:04;-5.67;67.03
67942;SHT31;54731;42.600;23.476;2023-02-11T06:02:30;-5.72;67.10
67942;SHT31;54731;42.600;23.476;2023-02-11T06:04:55;-5.76;67.08
67942;SHT31;54731;42.600;23.476;2023-02-11T06:07:21;-5.69;66.94
67942;SHT31;54731;42.600;23.476;2023-02-11T06:09:46;-5.67;67.07
67942;SHT31;54731;42.600;23.476;2023-02-11T06:12:14;-5.64;67.09
67942;SHT31;54731;42.600;23.476;2023-02-11T06:14:39;-5.66;67.14
67942;SHT31;54731;42.600;23.476;2023-02-11T06:17:04;-5.69;67.14
67942;SHT31;54731;42.600;23.476;2023-02-11T06:19:30;-5.79;67.56
67942;SHT31;54731;42.600;23.476;2023-02-11T06:21:56;-5.80;67.71
67942;SHT31;54731;42.600;23.476;2023-02-11T06:24:21;-5.83;67.74
67942;SHT31;54731;42.600;23.476;2023-02-11T06:26:47;-5.87;67.84
67942;SHT31;54731;42.600;23.476;2023-02-11T06:29:12;-5.89;67.99
67942;SHT31;54731;42.600;23.476;2023-02-11T06:31:37;-5.80;67.94
67942;SHT31;54731;42.600;23.476;2023-02-11T06:34:03;-5.74;67.79
67942;SHT31;54731;42.600;23.476;2023-02-11T06:36:28;-5.64;67.70
67942;SHT31;54731;42.600;23.476;2023-02-11T06:38:54;-5.52;67.58
67942;SHT31;54731;42.600;23.476;2023-02-11T06:41:19;-5.39;67.54
67942;SHT31;54731;42.600;23.476;2023-02-11T06:43:45;-5.38;67.54
67942;SHT31;54731;42.600;23.476;2023-02-11T06:46:11;-5.39;67.55
67942;SHT31;54731;42.600;23.476;2023-02-11T06:48:36;-5.38;67.71
67942;SHT31;54731;42.600;23.476;2023-02-11T06:51:03;-5.36;67.96
67942;SHT31;54731;42.600;23.476;2023-02-11T06:53:30;-5.29;67.75
67942;SHT31;54731;42.600;23.476;2023-02-11T06:55:55;-5.30;67.97
67942;SHT31;54731;42.600;23.476;2023-02-11T06:58:21;-5.32;68.26
67942;SHT31;54731;42.600;23.476;2023-02-11T07:00:46;-5.30;68.08
67942;SHT31;54731;42.600;23.476;2023-02-11T07:03:11;-5.28;68.11
67942;SHT31;54731;42.600;23.476;2023-02-11T07:05:36;-5.28;68.24
67942;SHT31;54731;42.600;23.476;2023-02-11T07:08:02;-5.29;68.85
67942;SHT31;54731;42.600;23.476;2023-02-11T07:10:27;-5.28;68.89
67942;SHT31;54731;42.600;23.476;2023-02-11T07:12:52;-5.26;69.15
67942;SHT31;54731;42.600;23.476;2023-02-11T07:15:18;-5.19;69.12
67942;SHT31;54731;42.600;23.476;2023-02-11T07:17:43;-5.12;68.36
67942;SHT31;54731;42.600;23.476;2023-02-11T07:20:09;-5.12;68.68
67942;SHT31;54731;42.600;23.476;2023-02-11T07:22:34;-5.05;68.94
67942;SHT31;54731;42.600;23.476;2023-02-11T07:24:59;-5.02;68.85
67942;SHT31;54731;42.600;23.476;2023-02-11T07:27:25;-5.09;68.82
67942;SHT31;54731;42.600;23.476;2023-02-11T07:29:50;-5.11;68.93
67942;SHT31;54731;42.600;23.476;2023-02-11T07:32:15;-5.05;68.89
67942;SHT31;54731;42.600;23.476;2023-02-11T07:34:40;-5.02;68.83
67942;SHT31;54731;42.600;23.476;2023-02-11T07:37:06;-4.98;69.16
67942;SHT31;54731;42.600;23.476;2023-02-11T07:39:31;-4.92;69.19
67942;SHT31;54731;42.600;23.476;2023-02-11T07:41:56;-4.92;69.12
67942;SHT31;54731;42.600;23.476;2023-02-11T07:44:22;-4.80;69.01
67942;SHT31;54731;42.600;23.476;2023-02-11T07:46:47;-4.74;68.52
67942;SHT31;54731;42.600;23.476;2023-02-11T07:49:12;-4.75;69.60
67942;SHT31;54731;42.600;23.476;2023-02-11T07:51:38;-4.71;69.33
67942;SHT31;54731;42.600;23.476;2023-02-11T07:54:03;-4.68;69.80
67942;SHT31;54731;42.600;23.476;2023-02-11T07:56:29;-4.68;69.58
67942;SHT31;54731;42.600;23.476;2023-02-11T07:58:57;-4.73;70.21
67942;SHT31;54731;42.600;23.476;2023-02-11T08:01:24;-4.70;69.67
67942;SHT31;54731;42.600;23.476;2023-02-11T08:03:50;-4.60;69.75
67942;SHT31;54731;42.600;23.476;2023-02-11T08:06:18;-4.61;69.98
67942;SHT31;54731;42.600;23.476;2023-02-11T08:08:43;-4.56;69.89
67942;SHT31;54731;42.600;23.476;2023-02-11T08:11:11;-4.49;70.24
67942;SHT31;54731;42.600;23.476;2023-02-11T08:13:37;-4.36;69.33
67942;SHT31;54731;42.600;23.476;2023-02-11T08:16:04;-4.30;67.39
67942;SHT31;54731;42.600;23.476;2023-02-11T08:18:31;-4.17;66.40
67942;SHT31;54731;42.600;23.476;2023-02-11T08:20:56;-4.06;65.49
67942;SHT31;54731;42.600;23.476;2023-02-11T08:23:27;-4.02;64.90
67942;SHT31;54731;42.600;23.476;2023-02-11T08:25:52;-3.92;64.92
67942;SHT31;54731;42.600;23.476;2023-02-11T08:28:17;-3.95;64.58
67942;SHT31;54731;42.600;23.476;2023-02-11T08:30:43;-3.81;65.19
67942;SHT31;54731;42.600;23.476;2023-02-11T08:33:08;-3.71;64.50
67942;SHT31;54731;42.600;23.476;2023-02-11T08:35:34;-3.69;63.59
67942;SHT31;54731;42.600;23.476;2023-02-11T08:37:59;-3.69;63.91
67942;SHT31;54731;42.600;23.476;2023-02-11T08:40:25;-3.77;64.64
67942;SHT31;54731;42.600;23.476;2023-02-11T08:42:50;-3.71;64.28
67942;SHT31;54731;42.600;23.476;2023-02-11T08:45:15;-3.64;64.29
67942;SHT31;54731;42.600;23.476;2023-02-11T08:47:41;-3.51;64.84
67942;SHT31;54731;42.600;23.476;2023-02-11T08:50:06;-3.51;64.96
67942;SHT31;54731;42.600;23.476;2023-02-11T08:52:31;-3.48;65.93
67942;SHT31;54731;42.600;23.476;2023-02-11T08:54:57;-3.43;66.20
67942;SHT31;54731;42.600;23.476;2023-02-11T08:57:22;-3.37;66.51
67942;SHT31;54731;42.600;23.476;2023-02-11T08:59:47;-3.24;65.75
67942;SHT31;54731;42.600;23.476;2023-02-11T09:02:13;-3.27;66.05
67942;SHT31;54731;42.600;23.476;2023-02-11T09:04:39;-3.16;65.89
67942;SHT31;54731;42.600;23.476;2023-02-11T09:07:05;-3.20;65.50
67942;SHT31;54731;42.600;23.476;2023-02-11T09:09:30;-3.03;65.26
67942;SHT31;54731;42.600;23.476;2023-02-11T09:11:55;-2.94;66.20
67942;SHT31;54731;42.600;23.476;2023-02-11T09:14:22;-3.06;64.67
67942;SHT31;54731;42.600;23.476;2023-02-11T09:16:48;-3.04;64.11
67942;SHT31;54731;42.600;23.476;2023-02-11T09:19:13;-2.92;64.79
67942;SHT31;54731;42.600;23.476;2023-02-11T09:21:39;-3.06;64.55
67942;SHT31;54731;42.600;23.476;2023-02-11T09:24:04;-3.01;64.83
67942;SHT31;54731;42.600;23.476;2023-02-11T09:26:31;-2.87;64.97
67942;SHT31;54731;42.600;23.476;2023-02-11T09:28:57;-2.79;64.74
67942;SHT31;54731;42.600;23.476;2023-02-11T09:31:24;-2.70;64.23
67942;SHT31;54731;42.600;23.476;2023-02-11T09:33:53;-2.58;63.95
67942;SHT31;54731;42.600;23.476;2023-02-11T09:36:45;-2.38;62.51
67942;SHT31;54731;42.600;23.476;2023-02-11T09:39:14;-2.44;61.95
67942;SHT31;54731;42.600;23.476;2023-02-11T09:44:35;-2.29;62.03
67942;SHT31;54731;42.600;23.476;2023-02-11T09:47:09;-2.05;61.76
67942;SHT31;54731;42.600;23.476;2023-02-11T09:49:49;-2.01;61.22
67942;SHT31;54731;42.600;23.476;2023-02-11T09:52:54;-1.95;60.99
67942;SHT31;54731;42.600;23.476;2023-02-11T09:55:24;-1.76;60.78
67942;SHT31;54731;42.600;23.476;2023-02-11T09:57:51;-1.70;59.31
67942;SHT31;54731;42.600;23.476;2023-02-11T10:03:00;-1.53;58.78
67942;SHT31;54731;42.600;23.476;2023-02-11T10:06:17;-1.32;58.28
67942;SHT31;54731;42.600;23.476;2023-02-11T10:08:52;-1.31;57.16
67942;SHT31;54731;42.600;23.476;2023-02-11T10:22:38;-0.51;55.69
67942;SHT31;54731;42.600;23.476;2023-02-11T10:25:19;-0.38;54.82
67942;SHT31;54731;42.600;23.476;2023-02-11T10:27:44;-0.44;53.55
67942;SHT31;54731;42.600;23.476;2023-02-11T10:32:45;-0.31;54.52
67942;SHT31;54731;42.600;23.476;2023-02-11T10:35:15;-0.28;55.42
67942;SHT31;54731;42.600;23.476;2023-02-11T10:37:41;-0.40;55.31
67942;SHT31;54731;42.600;23.476;2023-02-11T10:40:15;-0.23;55.74
67942;SHT31;54731;42.600;23.476;2023-02-11T10:42:44;0.03;55.45
67942;SHT31;54731;42.600;23.476;2023-02-11T10:45:18;0.05;53.92
67942;SHT31;54731;42.600;23.476;2023-02-11T10:47:45;0.18;54.27
67942;SHT31;54731;42.600;23.476;2023-02-11T10:52:44;0.17;52.33
67942;SHT31;54731;42.600;23.476;2023-02-11T10:55:16;0.27;52.70
67942;SHT31;54731;42.600;23.476;2023-02-11T11:02:42;0.78;51.63
67942;SHT31;54731;42.600;23.476;2023-02-11T11:05:16;0.86;51.81
67942;SHT31;54731;42.600;23.476;2023-02-11T11:07:58;1.00;51.71
67942;SHT31;54731;42.600;23.476;2023-02-11T11:10:37;1.19;50.91
67942;SHT31;54731;42.600;23.476;2023-02-11T11:13:03;1.31;51.40
67942;SHT31;54731;42.600;23.476;2023-02-11T11:15:30;1.26;50.39
67942;SHT31;54731;42.600;23.476;2023-02-11T11:18:17;1.39;50.83
67942;SHT31;54731;42.600;23.476;2023-02-11T11:20:58;1.64;50.21
67942;SHT31;54731;42.600;23.476;2023-02-11T11:23:24;1.73;51.43
67942;SHT31;54731;42.600;23.476;2023-02-11T11:26:11;1.64;50.00
67942;SHT31;54731;42.600;23.476;2023-02-11T11:28:40;1.67;48.95
67942;SHT31;54731;42.600;23.476;2023-02-11T11:31:17;1.58;48.15
67942;SHT31;54731;42.600;23.476;2023-02-11T11:33:42;1.55;48.76
67942;SHT31;54731;42.600;23.476;2023-02-11T11:36:11;1.78;48.03
67942;SHT31;54731;42.600;23.476;2023-02-11T11:38:43;1.86;47.34
67942;SHT31;54731;42.600;23.476;2023-02-11T11:44:01;2.21;46.84
67942;SHT31;54731;42.600;23.476;2023-02-11T11:46:33;2.45;46.83
67942;SHT31;54731;42.600;23.476;2023-02-11T11:49:27;2.72;45.15
67942;SHT31;54731;42.600;23.476;2023-02-11T11:52:24;2.89;43.70
67942;SHT31;54731;42.600;23.476;2023-02-11T11:54:59;3.30;44.13
67942;SHT31;54731;42.600;23.476;2023-02-11T11:57:26;3.48;43.68
67942;SHT31;54731;42.600;23.476;2023-02-11T11:59:52;3.76;43.27
67942;SHT31;54731;42.600;23.476;2023-02-11T12:05:24;3.50;41.11
67942;SHT31;54731;42.600;23.476;2023-02-11T12:08:12;3.65;42.04
67942;SHT31;54731;42.600;23.476;2023-02-11T12:13:25;4.51;40.38
67942;SHT31;54731;42.600;23.476;2023-02-11T12:29:30;4.94;39.08
67942;SHT31;54731;42.600;23.476;2023-02-11T12:40:13;5.59;37.67
67942;SHT31;54731;42.600;23.476;2023-02-11T12:45:26;5.65;37.33
67942;SHT31;54731;42.600;23.476;2023-02-11T12:59:12;5.76;37.27
67942;SHT31;54731;42.600;23.476;2023-02-11T13:01:41;5.56;38.05
67942;SHT31;54731;42.600;23.476;2023-02-11T13:04:23;6.08;37.88
67942;SHT31;54731;42.600;23.476;2023-02-11T13:06:54;6.68;37.50
67942;SHT31;54731;42.600;23.476;2023-02-11T13:09:47;6.25;36.77
67942;SHT31;54731;42.600;23.476;2023-02-11T13:12:11;5.90;37.63
67942;SHT31;54731;42.600;23.476;2023-02-11T13:14:38;6.08;36.92
67942;SHT31;54731;42.600;23.476;2023-02-11T13:17:13;6.40;37.70
67942;SHT31;54731;42.600;23.476;2023-02-11T13:19:49;5.97;37.69
67942;SHT31;54731;42.600;23.476;2023-02-11T13:22:21;5.97;39.23
67942;SHT31;54731;42.600;23.476;2023-02-11T13:24:57;6.32;37.55
67942;SHT31;54731;42.600;23.476;2023-02-11T13:30:28;6.22;37.19
67942;SHT31;54731;42.600;23.476;2023-02-11T13:38:21;6.46;36.45
67942;SHT31;54731;42.600;23.476;2023-02-11T13:43:28;6.40;35.88
67942;SHT31;54731;42.600;23.476;2023-02-11T13:45:59;5.96;36.01
67942;SHT31;54731;42.600;23.476;2023-02-11T13:48:31;6.32;36.91
67942;SHT31;54731;42.600;23.476;2023-02-11T13:51:00;6.59;35.68
67942;SHT31;54731;42.600;23.476;2023-02-11T13:53:26;6.81;34.30
67942;SHT31;54731;42.600;23.476;2023-02-11T13:56:08;7.05;35.95
67942;SHT31;54731;42.600;23.476;2023-02-11T13:58:36;7.33;35.93
67942;SHT31;54731;42.600;23.476;2023-02-11T14:01:02;7.42;34.98
67942;SHT31;54731;42.600;23.476;2023-02-11T14:03:36;7.51;35.35
67942;SHT31;54731;42.600;23.476;2023-02-11T14:08:33;7.47;35.22
67942;SHT31;54731;42.600;23.476;2023-02-11T14:11:00;7.71;36.95
67942;SHT31;54731;42.600;23.476;2023-02-11T14:13:32;7.85;36.81
67942;SHT31;54731;42.600;23.476;2023-02-11T14:23:50;7.37;36.68
67942;SHT31;54731;42.600;23.476;2023-02-11T14:26:34;7.05;36.18
67942;SHT31;54731;42.600;23.476;2023-02-11T14:34:55;6.41;38.78
67942;SHT31;54731;42.600;23.476;2023-02-11T14:40:25;6.08;38.30
67942;SHT31;54731;42.600;23.476;2023-02-11T14:42:50;5.73;37.95
67942;SHT31;54731;42.600;23.476;2023-02-11T14:45:26;5.47;39.35
67942;SHT31;54731;42.600;23.476;2023-02-11T14:48:02;5.19;40.95
67942;SHT31;54731;42.600;23.476;2023-02-11T14:53:00;4.82;42.34
67942;SHT31;54731;42.600;23.476;2023-02-11T14:55:30;4.62;43.14
67942;SHT31;54731;42.600;23.476;2023-02-11T14:58:16;4.43;43.11
67942;SHT31;54731;42.600;23.476;2023-02-11T15:01:01;4.17;42.71
67942;SHT31;54731;42.600;23.476;2023-02-11T15:08:25;3.71;44.36
67942;SHT31;54731;42.600;23.476;2023-02-11T15:10:52;3.52;44.95
67942;SHT31;54731;42.600;23.476;2023-02-11T15:13:23;3.28;45.26
67942;SHT31;54731;42.600;23.476;2023-02-11T15:15:53;3.00;46.45
67942;SHT31;54731;42.600;23.476;2023-02-11T15:18:21;2.75;46.74
67942;SHT31;54731;42.600;23.476;2023-02-11T15:20:48;2.63;45.73
67942;SHT31;54731;42.600;23.476;2023-02-11T15:23:23;2.59;46.01
67942;SHT31;54731;42.600;23.476;2023-02-11T15:25:49;2.48;46.36
67942;SHT31;54731;42.600;23.476;2023-02-11T15:28:23;2.16;47.03
67942;SHT31;54731;42.600;23.476;2023-02-11T15:33:25;2.02;46.96
67942;SHT31;54731;42.600;23.476;2023-02-11T15:35:51;1.89;47.13
67942;SHT31;54731;42.600;23.476;2023-02-11T15:38:16;1.81;47.49
67942;SHT31;54731;42.600;23.476;2023-02-11T15:40:51;1.70;47.62
67942;SHT31;54731;42.600;23.476;2023-02-11T15:43:16;1.60;48.31
67942;SHT31;54731;42.600;23.476;2023-02-11T15:45:52;1.46;48.67
67942;SHT31;54731;42.600;23.476;2023-02-11T15:48:23;1.39;49.38
67942;SHT31;54731;42.600;23.476;2023-02-11T15:50:54;1.26;49.43
67942;SHT31;54731;42.600;23.476;2023-02-11T15:55:54;1.02;50.02
67942;SHT31;54731;42.600;23.476;2023-02-11T15:58:21;0.93;50.59
67942;SHT31;54731;42.600;23.476;2023-02-11T16:00:50;0.88;50.85
67942;SHT31;54731;42.600;23.476;2023-02-11T16:03:24;0.70;50.73
67942;SHT31;54731;42.600;23.476;2023-02-11T16:05:50;0.65;51.19
67942;SHT31;54731;42.600;23.476;2023-02-11T16:08:26;0.54;51.46
67942;SHT31;54731;42.600;23.476;2023-02-11T16:10:59;0.42;51.42
67942;SHT31;54731;42.600;23.476;2023-02-11T16:13:26;0.21;51.77
67942;SHT31;54731;42.600;23.476;2023-02-11T16:15:56;0.11;51.92
67942;SHT31;54731;42.600;23.476;2023-02-11T16:18:36;0.10;51.54
67942;SHT31;54731;42.600;23.476;2023-02-11T16:21:03;-0.20;52.80
67942;SHT31;54731;42.600;23.476;2023-02-11T16:23:39;-0.30;53.07
67942;SHT31;54731;42.600;23.476;2023-02-11T16:28:30;-0.27;53.03
67942;SHT31;54731;42.600;23.476;2023-02-11T16:30:56;-0.30;53.31
67942;SHT31;54731;42.600;23.476;2023-02-11T16:33:22;-0.36;53.48
67942;SHT31;54731;42.600;23.476;2023-02-11T16:35:47;-0.31;53.72
67942;SHT31;54731;42.600;23.476;2023-02-11T16:38:13;-0.41;54.20
67942;SHT31;54731;42.600;23.476;2023-02-11T16:40:39;-0.50;54.38
67942;SHT31;54731;42.600;23.476;2023-02-11T16:43:05;-0.57;54.80
67942;SHT31;54731;42.600;23.476;2023-02-11T16:45:30;-0.58;54.30
67942;SHT31;54731;42.600;23.476;2023-02-11T16:47:56;-0.45;53.80
67942;SHT31;54731;42.600;23.476;2023-02-11T16:50:24;-0.58;54.88
67942;SHT31;54731;42.600;23.476;2023-02-11T16:52:50;-0.64;55.68
67942;SHT31;54731;42.600;23.476;2023-02-11T16:55:16;-0.65;54.96
67942;SHT31;54731;42.600;23.476;2023-02-11T16:57:41;-0.56;55.09
67942;SHT31;54731;42.600;23.476;2023-02-11T17:00:07;-0.51;55.09
67942;SHT31;54731;42.600;23.476;2023-02-11T17:02:34;-0.68;55.90
67942;SHT31;54731;42.600;23.476;2023-02-11T17:05:02;-0.56;54.00
67942;SHT31;54731;42.600;23.476;2023-02-11T17:07:28;-0.47;53.68
67942;SHT31;54731;42.600;23.476;2023-02-11T17:09:54;-0.38;53.30
67942;SHT31;54731;42.600;23.476;2023-02-11T17:12:20;-0.34;53.24
67942;SHT31;54731;42.600;23.476;2023-02-11T17:14:46;-0.38;53.59
67942;SHT31;54731;42.600;23.476;2023-02-11T17:17:12;-0.40;53.52
67942;SHT31;54731;42.600;23.476;2023-02-11T17:19:38;-0.41;53.44
67942;SHT31;54731;42.600;23.476;2023-02-11T17:22:03;-0.44;53.29
67942;SHT31;54731;42.600;23.476;2023-02-11T17:24:28;-0.40;52.70
67942;SHT31;54731;42.600;23.476;2023-02-11T17:26:54;-0.44;52.60
67942;SHT31;54731;42.600;23.476;2023-02-11T17:29:21;-0.41;52.38
67942;SHT31;54731;42.600;23.476;2023-02-11T17:31:47;-0.40;51.91
67942;SHT31;54731;42.600;23.476;2023-02-11T17:34:12;-0.30;52.07
67942;SHT31;54731;42.600;23.476;2023-02-11T17:36:38;-0.40;52.21
67942;SHT31;54731;42.600;23.476;2023-02-11T17:39:04;-0.45;53.01
67942;SHT31;54731;42.600;23.476;2023-02-11T17:41:30;-0.50;52.44
67942;SHT31;54731;42.600;23.476;2023-02-11T17:43:59;-0.57;52.86
67942;SHT31;54731;42.600;23.476;2023-02-11T17:46:25;-0.62;53.12
67942;SHT31;54731;42.600;23.476;2023-02-11T17:48:50;-0.60;53.64
67942;SHT31;54731;42.600;23.476;2023-02-11T17:51:30;-0.58;52.35
67942;SHT31;54731;42.600;23.476;2023-02-11T17:53:58;-0.54;52.27
67942;SHT31;54731;42.600;23.476;2023-02-11T17:56:23;-0.51;51.66
67942;SHT31;54731;42.600;23.476;2023-02-11T17:58:49;-0.50;51.96
67942;SHT31;54731;42.600;23.476;2023-02-11T18:01:14;-0.50;51.91
67942;SHT31;54731;42.600;23.476;2023-02-11T18:03:40;-0.58;53.13
67942;SHT31;54731;42.600;23.476;2023-02-11T18:06:06;-0.60;52.66
67942;SHT31;54731;42.600;23.476;2023-02-11T18:08:32;-0.67;53.62
67942;SHT31;54731;42.600;23.476;2023-02-11T18:10:58;-0.80;53.98